Guide — WDE7328 — position and weather

sailwx.info

Track history (hours):
 
Tides and Currents Weather Stations Pressure Air Temp Water Temp Dewpoint Dewpoint Depression Visibility Wind Speed Wind Dir Waves Ship Positions

Guide

Owner: CROWLEY MARINE SERVICES INC, SEATTLE, WA. More information available from US FCC via Universal Licensing System and Coast Guard Vessel Documentation Center.

Last reported at 2014-Dec-20 09:33 UTC. Time now 2014-Dec-20 10:24 UTC.
Position N 47°18' W 122°26'.

Length 34 m; draft 5.1 m.

Type: Tug. MMSI: 366759530.

Date/timePositionNaut miles runAvg speedWind from/ knotsBaromVisibWave heightAir tempDewpointWater temp
2014-Dec-20 09:33N 47°18' W 122°26'0 0.0
2014-Dec-20 08:33N 47°18' W 122°26'1 1.4
2014-Dec-20 07:33N 47°16' W 122°25'2 1.5
2014-Dec-20 06:33N 47°15' W 122°26'0 0.0
2014-Dec-20 05:33N 47°15' W 122°26'0 0.0
2014-Dec-20 04:33N 47°15' W 122°26'0 0.0
2014-Dec-20 03:33N 47°15' W 122°26'0 0.0
2014-Dec-20 02:33N 47°15' W 122°26'0 0.0
2014-Dec-20 01:33N 47°15' W 122°26'0 0.0
2014-Dec-20 00:33N 47°15' W 122°26'0 0.0
2014-Dec-19 23:33N 47°15' W 122°26'0 0.0
2014-Dec-19 22:33N 47°15' W 122°26'0 0.0
2014-Dec-19 21:33N 47°15' W 122°26'0 0.0
2014-Dec-19 20:33N 47°15' W 122°26'0 0.0
2014-Dec-19 19:33N 47°15' W 122°26'0 0.0
2014-Dec-19 18:33N 47°15' W 122°26'0 0.0
2014-Dec-19 17:33N 47°15' W 122°26'0 0.0
2014-Dec-19 16:33N 47°15' W 122°26'1 1.5
2014-Dec-19 15:33N 47°17' W 122°25'1 0.6
2014-Dec-19 14:33N 47°17' W 122°24'1 0.8
2014-Dec-19 13:32N 47°16' W 122°24'0 0.3
2014-Dec-19 12:33N 47°16' W 122°23'1 0.6
2014-Dec-19 11:33N 47°15' W 122°23'3 3.1
2014-Dec-19 10:33N 47°18' W 122°26'1 1.4
2014-Dec-19 09:33N 47°17' W 122°25'2 1.7
2014-Dec-19 08:33N 47°15' W 122°23'1 1.2
2014-Dec-19 07:33N 47°16' W 122°24'3 3.2
2014-Dec-19 06:33N 47°19' W 122°27'8 8.3
2014-Dec-19 05:33N 47°27' W 122°25'9 9.2
2014-Dec-19 04:33N 47°36' W 122°24'2 2.0
2014-Dec-19 03:33N 47°35' W 122°21'0 0.0
2014-Dec-19 02:33N 47°35' W 122°21'0 0.4
2014-Dec-19 01:33N 47°35' W 122°21'8 7.6
2014-Dec-19 00:33N 47°34' W 122°32'5 5.1
2014-Dec-18 23:33N 47°33' W 122°39'0 0.3
2014-Dec-18 22:33N 47°33' W 122°39'5 4.8
2014-Dec-18 21:33N 47°34' W 122°32'2 2.3
2014-Dec-18 20:33N 47°34' W 122°29'2 2.2
2014-Dec-18 19:33N 47°35' W 122°26'3 3.2
2014-Dec-18 18:33N 47°35' W 122°21'0 0.0
2014-Dec-18 17:33N 47°35' W 122°21'6 6.1
2014-Dec-18 16:33N 47°30' W 122°24'9 8.9
2014-Dec-18 15:33N 47°21' W 122°24'6 5.6
2014-Dec-18 14:33N 47°15' W 122°23'3 2.8
2014-Dec-18 13:33N 47°17' W 122°26'2 1.9
2014-Dec-18 12:33N 47°15' W 122°26'0 0.0
2014-Dec-18 11:33N 47°15' W 122°26'0 0.0
2014-Dec-18 10:33N 47°15' W 122°26'0 0.0
2014-Dec-18 09:33N 47°15' W 122°26'0 0.0
2014-Dec-18 08:33N 47°15' W 122°26'0 0.0
2014-Dec-18 07:33N 47°15' W 122°26'0 0.0
2014-Dec-18 06:33N 47°15' W 122°26'0 0.0
2014-Dec-18 05:33N 47°15' W 122°26'0 0.0
2014-Dec-18 04:33N 47°15' W 122°26'2 1.6
2014-Dec-18 03:33N 47°17' W 122°25'2 1.6
2014-Dec-18 02:33N 47°15' W 122°26'0 0.0
2014-Dec-18 01:33N 47°15' W 122°26'0 0.0
2014-Dec-18 00:34N 47°15' W 122°26'0 0.0
2014-Dec-17 23:27N 47°15' W 122°26'0 0.0
2014-Dec-17 22:32N 47°15' W 122°26'0 0.0
2014-Dec-17 21:33N 47°15' W 122°26'2 2.0
2014-Dec-17 20:33N 47°16' W 122°23'0 0.2
2014-Dec-17 19:33N 47°16' W 122°23'2 1.9
2014-Dec-17 18:33N 47°15' W 122°26'0 0.0
2014-Dec-17 17:33N 47°15' W 122°26'0 0.0
2014-Dec-17 16:32N 47°15' W 122°26'0 0.0
2014-Dec-17 15:33N 47°15' W 122°26'0 0.0
2014-Dec-17 14:33N 47°15' W 122°26'0 0.0
2014-Dec-17 13:33N 47°15' W 122°26'0 0.0
2014-Dec-17 12:15N 47°15' W 122°26'0 0.0
2014-Dec-17 11:33N 47°15' W 122°26'0 0.0
2014-Dec-17 10:33N 47°15' W 122°26'0 0.0
2014-Dec-17 09:33N 47°15' W 122°26'0 0.0
2014-Dec-17 08:33N 47°15' W 122°26'0 0.0
2014-Dec-17 07:33N 47°15' W 122°26'0 0.0
2014-Dec-17 06:33N 47°15' W 122°26'0 0.0
2014-Dec-17 05:33N 47°15' W 122°26'0 0.0
2014-Dec-17 04:33N 47°15' W 122°26'0 0.0
2014-Dec-17 03:33N 47°15' W 122°26'2 2.1
2014-Dec-17 02:33N 47°16' W 122°23'1 1.3
2014-Dec-17 01:33N 47°16' W 122°24'1 1.3
2014-Dec-17 00:33N 47°16' W 122°23'2 2.4
2014-Dec-16 23:33N 47°16' W 122°26'1 0.8
2014-Dec-16 22:33N 47°15' W 122°26'0 0.0
2014-Dec-16 21:33N 47°15' W 122°26'0 0.0
2014-Dec-16 20:33N 47°15' W 122°26'0 0.0
2014-Dec-16 19:33N 47°15' W 122°26'0 0.0
2014-Dec-16 18:32N 47°15' W 122°26'2 2.2
2014-Dec-16 17:33N 47°16' W 122°23'3 2.9
2014-Dec-16 16:33N 47°18' W 122°26'0 0.2
2014-Dec-16 15:33N 47°18' W 122°26'1 1.3
2014-Dec-16 14:33N 47°17' W 122°25'1 0.5
2014-Dec-16 13:33N 47°17' W 122°25'2 2.5
2014-Dec-16 12:33N 47°15' W 122°23'2 1.9
2014-Dec-16 11:33N 47°17' W 122°25'1 1.3
2014-Dec-16 10:33N 47°18' W 122°26'0 0.0
2014-Dec-16 09:33N 47°18' W 122°26'3 2.9
2014-Dec-16 08:33N 47°16' W 122°23'3 2.9
2014-Dec-16 07:33N 47°18' W 122°26'0 0.3
2014-Dec-16 06:33N 47°18' W 122°26'2 2.3
2014-Dec-16 05:33N 47°16' W 122°24'0 0.4
2014-Dec-16 04:33N 47°16' W 122°24'2 1.9
2014-Dec-16 03:32N 47°18' W 122°26'2 1.5
2014-Dec-16 02:33N 47°16' W 122°24'1 1.2
2014-Dec-16 01:33N 47°16' W 122°23'2 1.0
2014-Dec-15 23:29N 47°15' W 122°26'0 0.0
2014-Dec-15 22:33N 47°15' W 122°26'0 0.0
2014-Dec-15 21:33N 47°15' W 122°26'0 0.0
2014-Dec-15 20:33N 47°15' W 122°26'0 0.0
2014-Dec-15 19:33N 47°15' W 122°26'0 0.0
2014-Dec-15 18:33N 47°15' W 122°26'0 0.0
2014-Dec-15 17:33N 47°15' W 122°26'0 0.0
2014-Dec-15 16:33N 47°15' W 122°26'0 0.0
2014-Dec-15 15:33N 47°15' W 122°26'0 0.0
2014-Dec-15 14:33N 47°15' W 122°26'0 0.0
2014-Dec-15 13:33N 47°15' W 122°26'0 0.0
2014-Dec-15 12:33N 47°15' W 122°26'0 0.0
2014-Dec-15 11:33N 47°15' W 122°26'0 0.0
2014-Dec-15 10:33N 47°15' W 122°26'0 0.0
2014-Dec-15 09:33N 47°15' W 122°26'0 0.0
2014-Dec-15 08:33N 47°15' W 122°26'0 0.0
2014-Dec-15 07:33N 47°15' W 122°26'0 0.0
2014-Dec-15 06:31N 47°15' W 122°26'0 0.0
2014-Dec-15 05:33N 47°15' W 122°26'0 0.0
2014-Dec-15 04:33N 47°15' W 122°26'0 0.0
2014-Dec-15 03:33N 47°15' W 122°26'0 0.0
2014-Dec-15 02:33N 47°15' W 122°26'2 1.5
2014-Dec-15 01:33N 47°16' W 122°24'0 0.2
2014-Dec-15 00:23N 47°16' W 122°24'1 1.1
2014-Dec-14 23:33N 47°16' W 122°23'0 0.0
2014-Dec-14 22:33N 47°16' W 122°23'0 0.0
2014-Dec-14 21:33N 47°16' W 122°23'2 1.8
2014-Dec-14 20:33N 47°17' W 122°25'2 1.6
2014-Dec-14 19:33N 47°15' W 122°26'0 0.0
2014-Dec-14 18:33N 47°15' W 122°26'0 0.0
2014-Dec-14 17:33N 47°15' W 122°26'0 0.0
2014-Dec-14 16:33N 47°15' W 122°26'0 0.0
2014-Dec-14 15:33N 47°15' W 122°26'0 0.0
2014-Dec-14 14:33N 47°15' W 122°26'0 0.0
2014-Dec-14 13:33N 47°15' W 122°26'0 0.0
2014-Dec-14 12:33N 47°15' W 122°26'0 0.0
2014-Dec-14 11:33N 47°15' W 122°26'0 0.0
2014-Dec-14 10:33N 47°15' W 122°26'1 1.4
2014-Dec-14 09:33N 47°17' W 122°26'2 2.2
2014-Dec-14 08:33N 47°16' W 122°23'3 2.8
2014-Dec-14 07:33N 47°18' W 122°26'1 1.3
2014-Dec-14 06:33N 47°17' W 122°25'1 1.4
2014-Dec-14 05:33N 47°16' W 122°23'1 0.9
2014-Dec-14 04:33N 47°16' W 122°24'1 0.8
2014-Dec-14 03:33N 47°16' W 122°23'0 0.4
2014-Dec-14 02:33N 47°15' W 122°23'1 1.2
2014-Dec-14 01:31N 47°16' W 122°24'0 0.2
2014-Dec-14 00:33N 47°16' W 122°24'1 0.9
2014-Dec-13 23:33N 47°16' W 122°23'2 1.9
2014-Dec-13 22:33N 47°15' W 122°26'0 0.0
2014-Dec-13 21:33N 47°15' W 122°26'0 0.0
2014-Dec-13 20:33N 47°15' W 122°26'0 0.0
2014-Dec-13 19:22N 47°15' W 122°26'0 0.0
2014-Dec-13 18:18N 47°15' W 122°26'0 0.0
2014-Dec-13 17:14N 47°15' W 122°26'0 0.0
2014-Dec-13 16:33N 47°15' W 122°26'0 0.0
2014-Dec-13 15:33N 47°15' W 122°26'0 0.0
2014-Dec-13 14:33N 47°15' W 122°26'2 2.1
2014-Dec-13 13:33N 47°16' W 122°23'1 0.6
2014-Dec-13 12:33N 47°16' W 122°24'2 2.0
2014-Dec-13 11:33N 47°17' W 122°26'1 1.3
2014-Dec-13 10:33N 47°15' W 122°26'0 0.0
2014-Dec-13 09:33N 47°15' W 122°26'0 0.0
2014-Dec-13 07:31N 47°15' W 122°26'0 0.0
2014-Dec-13 06:33N 47°15' W 122°26'0 0.0
2014-Dec-13 05:33N 47°15' W 122°26'0 0.0
2014-Dec-13 04:33N 47°15' W 122°26'0 0.0
2014-Dec-13 03:33N 47°15' W 122°26'0 0.0
2014-Dec-13 02:33N 47°15' W 122°26'0 0.0
2014-Dec-13 01:27N 47°15' W 122°26'0 0.0
2014-Dec-12 22:31N 47°15' W 122°26'0 0.0
2014-Dec-12 21:33N 47°15' W 122°26'0 0.0
2014-Dec-12 20:33N 47°15' W 122°26'0 0.0
2014-Dec-12 19:33N 47°15' W 122°26'0 0.0
2014-Dec-12 18:33N 47°15' W 122°26'0 0.0
2014-Dec-12 17:33N 47°15' W 122°26'0 0.0
2014-Dec-12 16:33N 47°15' W 122°26'0 0.0
2014-Dec-12 15:33N 47°15' W 122°26'2 1.9
2014-Dec-12 14:33N 47°16' W 122°23'2 2.3
2014-Dec-12 13:33N 47°17' W 122°26'1 1.1
2014-Dec-12 12:33N 47°16' W 122°25'0 0.0
2014-Dec-12 11:33N 47°16' W 122°25'0 0.0
2014-Dec-12 10:33N 47°16' W 122°25'0 0.5
2014-Dec-12 09:33N 47°17' W 122°25'1 1.0
2014-Dec-12 08:33N 47°16' W 122°24'0 0.0
2014-Dec-12 07:30N 47°16' W 122°24'0 0.0
2014-Dec-12 06:19N 47°16' W 122°24'0 0.0
2014-Dec-12 05:30N 47°16' W 122°24'1 1.2
2014-Dec-12 04:33N 47°17' W 122°26'0 0.5
2014-Dec-12 03:32N 47°17' W 122°26'2 1.7
2014-Dec-12 02:32N 47°16' W 122°24'1 0.7
2014-Dec-12 01:33N 47°16' W 122°23'2 1.8
2014-Dec-12 00:28N 47°15' W 122°26'0 0.0
2014-Dec-11 23:33N 47°15' W 122°26'0 0.0
2014-Dec-11 22:33N 47°15' W 122°26'0 0.0
2014-Dec-11 21:33N 47°15' W 122°26'0 0.0
2014-Dec-11 20:33N 47°15' W 122°26'0 0.0
2014-Dec-11 19:33N 47°15' W 122°26'0 0.0
2014-Dec-11 18:33N 47°15' W 122°26'0 0.0
2014-Dec-11 17:33N 47°15' W 122°26'0 0.0
2014-Dec-11 16:33N 47°15' W 122°26'0 0.0
2014-Dec-11 15:33N 47°15' W 122°26'0 0.0
2014-Dec-11 14:33N 47°15' W 122°26'0 0.0
2014-Dec-11 13:33N 47°15' W 122°26'0 0.0
2014-Dec-11 12:33N 47°15' W 122°26'0 0.0
2014-Dec-11 11:33N 47°15' W 122°26'0 0.0
2014-Dec-11 10:33N 47°15' W 122°26'0 0.0
2014-Dec-11 09:33N 47°15' W 122°26'0 0.0
2014-Dec-11 08:29N 47°15' W 122°26'0 0.0
2014-Dec-11 07:12N 47°15' W 122°26'0 0.0
2014-Dec-11 06:26N 47°15' W 122°26'0 0.0
2014-Dec-11 05:33N 47°15' W 122°26'0 0.0
2014-Dec-11 04:33N 47°15' W 122°26'0 0.0
2014-Dec-11 03:33N 47°15' W 122°26'0 0.0
2014-Dec-11 02:33N 47°15' W 122°26'0 0.0
2014-Dec-11 01:33N 47°15' W 122°26'2 1.6
2014-Dec-11 00:34N 47°16' W 122°24'2 0.3
2014-Dec-10 18:30N 47°18' W 122°26'0 0.5
2014-Dec-10 17:33N 47°18' W 122°26'0 0.0
2014-Dec-10 16:33N 47°18' W 122°26'0 0.0
2014-Dec-10 15:32N 47°18' W 122°26'0 0.0
2014-Dec-10 14:33N 47°18' W 122°26'0 0.1
2014-Dec-10 13:33N 47°18' W 122°26'2 1.6
2014-Dec-10 12:31N 47°16' W 122°25'0 0.1
2014-Dec-10 11:33N 47°16' W 122°25'0 0.0
2014-Dec-10 10:33N 47°16' W 122°25'0 0.0
2014-Dec-10 09:33N 47°16' W 122°25'  
Track history (hours):
 
Tides and Currents Weather Stations Pressure Air Temp Water Temp Dewpoint Dewpoint Depression Visibility Wind Speed Wind Dir Waves Ship Positions

Guide

Owner: CROWLEY MARINE SERVICES INC, SEATTLE, WA. More information available from US FCC via Universal Licensing System and Coast Guard Vessel Documentation Center.

Last reported at 2014-Dec-20 09:33 UTC. Time now 2014-Dec-20 10:24 UTC.
Position N 47°18' W 122°26'.

Length 34 m; draft 5.1 m.

Type: Tug. MMSI: 366759530.

Date/timePositionNaut miles runAvg speedWind from/ knotsBaromVisibWave heightAir tempDewpointWater temp
2014-Dec-20 09:33N 47°18' W 122°26'0 0.0
2014-Dec-20 08:33N 47°18' W 122°26'1 1.4
2014-Dec-20 07:33N 47°16' W 122°25'2 1.5
2014-Dec-20 06:33N 47°15' W 122°26'0 0.0
2014-Dec-20 05:33N 47°15' W 122°26'0 0.0
2014-Dec-20 04:33N 47°15' W 122°26'0 0.0
2014-Dec-20 03:33N 47°15' W 122°26'0 0.0
2014-Dec-20 02:33N 47°15' W 122°26'0 0.0
2014-Dec-20 01:33N 47°15' W 122°26'0 0.0
2014-Dec-20 00:33N 47°15' W 122°26'0 0.0
2014-Dec-19 23:33N 47°15' W 122°26'0 0.0
2014-Dec-19 22:33N 47°15' W 122°26'0 0.0
2014-Dec-19 21:33N 47°15' W 122°26'0 0.0
2014-Dec-19 20:33N 47°15' W 122°26'0 0.0
2014-Dec-19 19:33N 47°15' W 122°26'0 0.0
2014-Dec-19 18:33N 47°15' W 122°26'0 0.0
2014-Dec-19 17:33N 47°15' W 122°26'0 0.0
2014-Dec-19 16:33N 47°15' W 122°26'1 1.5
2014-Dec-19 15:33N 47°17' W 122°25'1 0.6
2014-Dec-19 14:33N 47°17' W 122°24'1 0.8
2014-Dec-19 13:32N 47°16' W 122°24'0 0.3
2014-Dec-19 12:33N 47°16' W 122°23'1 0.6
2014-Dec-19 11:33N 47°15' W 122°23'3 3.1
2014-Dec-19 10:33N 47°18' W 122°26'1 1.4
2014-Dec-19 09:33N 47°17' W 122°25'2 1.7
2014-Dec-19 08:33N 47°15' W 122°23'1 1.2
2014-Dec-19 07:33N 47°16' W 122°24'3 3.2
2014-Dec-19 06:33N 47°19' W 122°27'8 8.3
2014-Dec-19 05:33N 47°27' W 122°25'9 9.2
2014-Dec-19 04:33N 47°36' W 122°24'2 2.0
2014-Dec-19 03:33N 47°35' W 122°21'0 0.0
2014-Dec-19 02:33N 47°35' W 122°21'0 0.4
2014-Dec-19 01:33N 47°35' W 122°21'8 7.6
2014-Dec-19 00:33N 47°34' W 122°32'5 5.1
2014-Dec-18 23:33N 47°33' W 122°39'0 0.3
2014-Dec-18 22:33N 47°33' W 122°39'5 4.8
2014-Dec-18 21:33N 47°34' W 122°32'2 2.3
2014-Dec-18 20:33N 47°34' W 122°29'2 2.2
2014-Dec-18 19:33N 47°35' W 122°26'3 3.2
2014-Dec-18 18:33N 47°35' W 122°21'0 0.0
2014-Dec-18 17:33N 47°35' W 122°21'6 6.1
2014-Dec-18 16:33N 47°30' W 122°24'9 8.9
2014-Dec-18 15:33N 47°21' W 122°24'6 5.6
2014-Dec-18 14:33N 47°15' W 122°23'3 2.8
2014-Dec-18 13:33N 47°17' W 122°26'2 1.9
2014-Dec-18 12:33N 47°15' W 122°26'0 0.0
2014-Dec-18 11:33N 47°15' W 122°26'0 0.0
2014-Dec-18 10:33N 47°15' W 122°26'0 0.0
2014-Dec-18 09:33N 47°15' W 122°26'0 0.0
2014-Dec-18 08:33N 47°15' W 122°26'0 0.0
2014-Dec-18 07:33N 47°15' W 122°26'0 0.0
2014-Dec-18 06:33N 47°15' W 122°26'0 0.0
2014-Dec-18 05:33N 47°15' W 122°26'0 0.0
2014-Dec-18 04:33N 47°15' W 122°26'2 1.6
2014-Dec-18 03:33N 47°17' W 122°25'2 1.6
2014-Dec-18 02:33N 47°15' W 122°26'0 0.0
2014-Dec-18 01:33N 47°15' W 122°26'0 0.0
2014-Dec-18 00:34N 47°15' W 122°26'0 0.0
2014-Dec-17 23:27N 47°15' W 122°26'0 0.0
2014-Dec-17 22:32N 47°15' W 122°26'0 0.0
2014-Dec-17 21:33N 47°15' W 122°26'2 2.0
2014-Dec-17 20:33N 47°16' W 122°23'0 0.2
2014-Dec-17 19:33N 47°16' W 122°23'2 1.9
2014-Dec-17 18:33N 47°15' W 122°26'0 0.0
2014-Dec-17 17:33N 47°15' W 122°26'0 0.0
2014-Dec-17 16:32N 47°15' W 122°26'0 0.0
2014-Dec-17 15:33N 47°15' W 122°26'0 0.0
2014-Dec-17 14:33N 47°15' W 122°26'0 0.0
2014-Dec-17 13:33N 47°15' W 122°26'0 0.0
2014-Dec-17 12:15N 47°15' W 122°26'0 0.0
2014-Dec-17 11:33N 47°15' W 122°26'0 0.0
2014-Dec-17 10:33N 47°15' W 122°26'0 0.0
2014-Dec-17 09:33N 47°15' W 122°26'0 0.0
2014-Dec-17 08:33N 47°15' W 122°26'0 0.0
2014-Dec-17 07:33N 47°15' W 122°26'0 0.0
2014-Dec-17 06:33N 47°15' W 122°26'0 0.0
2014-Dec-17 05:33N 47°15' W 122°26'0 0.0
2014-Dec-17 04:33N 47°15' W 122°26'0 0.0
2014-Dec-17 03:33N 47°15' W 122°26'2 2.1
2014-Dec-17 02:33N 47°16' W 122°23'1 1.3
2014-Dec-17 01:33N 47°16' W 122°24'1 1.3
2014-Dec-17 00:33N 47°16' W 122°23'2 2.4
2014-Dec-16 23:33N 47°16' W 122°26'1 0.8
2014-Dec-16 22:33N 47°15' W 122°26'0 0.0
2014-Dec-16 21:33N 47°15' W 122°26'0 0.0
2014-Dec-16 20:33N 47°15' W 122°26'0 0.0
2014-Dec-16 19:33N 47°15' W 122°26'0 0.0
2014-Dec-16 18:32N 47°15' W 122°26'2 2.2
2014-Dec-16 17:33N 47°16' W 122°23'3 2.9
2014-Dec-16 16:33N 47°18' W 122°26'0 0.2
2014-Dec-16 15:33N 47°18' W 122°26'1 1.3
2014-Dec-16 14:33N 47°17' W 122°25'1 0.5
2014-Dec-16 13:33N 47°17' W 122°25'2 2.5
2014-Dec-16 12:33N 47°15' W 122°23'2 1.9
2014-Dec-16 11:33N 47°17' W 122°25'1 1.3
2014-Dec-16 10:33N 47°18' W 122°26'0 0.0
2014-Dec-16 09:33N 47°18' W 122°26'3 2.9
2014-Dec-16 08:33N 47°16' W 122°23'3 2.9
2014-Dec-16 07:33N 47°18' W 122°26'0 0.3
2014-Dec-16 06:33N 47°18' W 122°26'2 2.3
2014-Dec-16 05:33N 47°16' W 122°24'0 0.4
2014-Dec-16 04:33N 47°16' W 122°24'2 1.9
2014-Dec-16 03:32N 47°18' W 122°26'2 1.5
2014-Dec-16 02:33N 47°16' W 122°24'1 1.2
2014-Dec-16 01:33N 47°16' W 122°23'2 1.0
2014-Dec-15 23:29N 47°15' W 122°26'0 0.0
2014-Dec-15 22:33N 47°15' W 122°26'0 0.0
2014-Dec-15 21:33N 47°15' W 122°26'0 0.0
2014-Dec-15 20:33N 47°15' W 122°26'0 0.0
2014-Dec-15 19:33N 47°15' W 122°26'0 0.0
2014-Dec-15 18:33N 47°15' W 122°26'0 0.0
2014-Dec-15 17:33N 47°15' W 122°26'0 0.0
2014-Dec-15 16:33N 47°15' W 122°26'0 0.0
2014-Dec-15 15:33N 47°15' W 122°26'0 0.0
2014-Dec-15 14:33N 47°15' W 122°26'0 0.0
2014-Dec-15 13:33N 47°15' W 122°26'0 0.0
2014-Dec-15 12:33N 47°15' W 122°26'0 0.0
2014-Dec-15 11:33N 47°15' W 122°26'0 0.0
2014-Dec-15 10:33N 47°15' W 122°26'0 0.0
2014-Dec-15 09:33N 47°15' W 122°26'0 0.0
2014-Dec-15 08:33N 47°15' W 122°26'0 0.0
2014-Dec-15 07:33N 47°15' W 122°26'0 0.0
2014-Dec-15 06:31N 47°15' W 122°26'0 0.0
2014-Dec-15 05:33N 47°15' W 122°26'0 0.0
2014-Dec-15 04:33N 47°15' W 122°26'0 0.0
2014-Dec-15 03:33N 47°15' W 122°26'0 0.0
2014-Dec-15 02:33N 47°15' W 122°26'2 1.5
2014-Dec-15 01:33N 47°16' W 122°24'0 0.2
2014-Dec-15 00:23N 47°16' W 122°24'1 1.1
2014-Dec-14 23:33N 47°16' W 122°23'0 0.0
2014-Dec-14 22:33N 47°16' W 122°23'0 0.0
2014-Dec-14 21:33N 47°16' W 122°23'2 1.8
2014-Dec-14 20:33N 47°17' W 122°25'2 1.6
2014-Dec-14 19:33N 47°15' W 122°26'0 0.0
2014-Dec-14 18:33N 47°15' W 122°26'0 0.0
2014-Dec-14 17:33N 47°15' W 122°26'0 0.0
2014-Dec-14 16:33N 47°15' W 122°26'0 0.0
2014-Dec-14 15:33N 47°15' W 122°26'0 0.0
2014-Dec-14 14:33N 47°15' W 122°26'0 0.0
2014-Dec-14 13:33N 47°15' W 122°26'0 0.0
2014-Dec-14 12:33N 47°15' W 122°26'0 0.0
2014-Dec-14 11:33N 47°15' W 122°26'0 0.0
2014-Dec-14 10:33N 47°15' W 122°26'1 1.4
2014-Dec-14 09:33N 47°17' W 122°26'2 2.2
2014-Dec-14 08:33N 47°16' W 122°23'3 2.8
2014-Dec-14 07:33N 47°18' W 122°26'1 1.3
2014-Dec-14 06:33N 47°17' W 122°25'1 1.4
2014-Dec-14 05:33N 47°16' W 122°23'1 0.9
2014-Dec-14 04:33N 47°16' W 122°24'1 0.8
2014-Dec-14 03:33N 47°16' W 122°23'0 0.4
2014-Dec-14 02:33N 47°15' W 122°23'1 1.2
2014-Dec-14 01:31N 47°16' W 122°24'0 0.2
2014-Dec-14 00:33N 47°16' W 122°24'1 0.9
2014-Dec-13 23:33N 47°16' W 122°23'2 1.9
2014-Dec-13 22:33N 47°15' W 122°26'0 0.0
2014-Dec-13 21:33N 47°15' W 122°26'0 0.0
2014-Dec-13 20:33N 47°15' W 122°26'0 0.0
2014-Dec-13 19:22N 47°15' W 122°26'0 0.0
2014-Dec-13 18:18N 47°15' W 122°26'0 0.0
2014-Dec-13 17:14N 47°15' W 122°26'0 0.0
2014-Dec-13 16:33N 47°15' W 122°26'0 0.0
2014-Dec-13 15:33N 47°15' W 122°26'0 0.0
2014-Dec-13 14:33N 47°15' W 122°26'2 2.1
2014-Dec-13 13:33N 47°16' W 122°23'1 0.6
2014-Dec-13 12:33N 47°16' W 122°24'2 2.0
2014-Dec-13 11:33N 47°17' W 122°26'1 1.3
2014-Dec-13 10:33N 47°15' W 122°26'0 0.0
2014-Dec-13 09:33N 47°15' W 122°26'0 0.0
2014-Dec-13 07:31N 47°15' W 122°26'0 0.0
2014-Dec-13 06:33N 47°15' W 122°26'0 0.0
2014-Dec-13 05:33N 47°15' W 122°26'0 0.0
2014-Dec-13 04:33N 47°15' W 122°26'0 0.0
2014-Dec-13 03:33N 47°15' W 122°26'0 0.0
2014-Dec-13 02:33N 47°15' W 122°26'0 0.0
2014-Dec-13 01:27N 47°15' W 122°26'0 0.0
2014-Dec-12 22:31N 47°15' W 122°26'0 0.0
2014-Dec-12 21:33N 47°15' W 122°26'0 0.0
2014-Dec-12 20:33N 47°15' W 122°26'0 0.0
2014-Dec-12 19:33N 47°15' W 122°26'0 0.0
2014-Dec-12 18:33N 47°15' W 122°26'0 0.0
2014-Dec-12 17:33N 47°15' W 122°26'0 0.0
2014-Dec-12 16:33N 47°15' W 122°26'0 0.0
2014-Dec-12 15:33N 47°15' W 122°26'2 1.9
2014-Dec-12 14:33N 47°16' W 122°23'2 2.3
2014-Dec-12 13:33N 47°17' W 122°26'1 1.1
2014-Dec-12 12:33N 47°16' W 122°25'0 0.0
2014-Dec-12 11:33N 47°16' W 122°25'0 0.0
2014-Dec-12 10:33N 47°16' W 122°25'0 0.5
2014-Dec-12 09:33N 47°17' W 122°25'1 1.0
2014-Dec-12 08:33N 47°16' W 122°24'0 0.0
2014-Dec-12 07:30N 47°16' W 122°24'0 0.0
2014-Dec-12 06:19N 47°16' W 122°24'0 0.0
2014-Dec-12 05:30N 47°16' W 122°24'1 1.2
2014-Dec-12 04:33N 47°17' W 122°26'0 0.5
2014-Dec-12 03:32N 47°17' W 122°26'2 1.7
2014-Dec-12 02:32N 47°16' W 122°24'1 0.7
2014-Dec-12 01:33N 47°16' W 122°23'2 1.8
2014-Dec-12 00:28N 47°15' W 122°26'0 0.0
2014-Dec-11 23:33N 47°15' W 122°26'0 0.0
2014-Dec-11 22:33N 47°15' W 122°26'0 0.0
2014-Dec-11 21:33N 47°15' W 122°26'0 0.0
2014-Dec-11 20:33N 47°15' W 122°26'0 0.0
2014-Dec-11 19:33N 47°15' W 122°26'0 0.0
2014-Dec-11 18:33N 47°15' W 122°26'0 0.0
2014-Dec-11 17:33N 47°15' W 122°26'0 0.0
2014-Dec-11 16:33N 47°15' W 122°26'0 0.0
2014-Dec-11 15:33N 47°15' W 122°26'0 0.0
2014-Dec-11 14:33N 47°15' W 122°26'0 0.0
2014-Dec-11 13:33N 47°15' W 122°26'0 0.0
2014-Dec-11 12:33N 47°15' W 122°26'0 0.0
2014-Dec-11 11:33N 47°15' W 122°26'0 0.0
2014-Dec-11 10:33N 47°15' W 122°26'0 0.0
2014-Dec-11 09:33N 47°15' W 122°26'0 0.0
2014-Dec-11 08:29N 47°15' W 122°26'0 0.0
2014-Dec-11 07:12N 47°15' W 122°26'0 0.0
2014-Dec-11 06:26N 47°15' W 122°26'0 0.0
2014-Dec-11 05:33N 47°15' W 122°26'0 0.0
2014-Dec-11 04:33N 47°15' W 122°26'0 0.0
2014-Dec-11 03:33N 47°15' W 122°26'0 0.0
2014-Dec-11 02:33N 47°15' W 122°26'0 0.0
2014-Dec-11 01:33N 47°15' W 122°26'2 1.6
2014-Dec-11 00:34N 47°16' W 122°24'2 0.3
2014-Dec-10 18:30N 47°18' W 122°26'0 0.5
2014-Dec-10 17:33N 47°18' W 122°26'0 0.0
2014-Dec-10 16:33N 47°18' W 122°26'0 0.0
2014-Dec-10 15:32N 47°18' W 122°26'0 0.0
2014-Dec-10 14:33N 47°18' W 122°26'0 0.1
2014-Dec-10 13:33N 47°18' W 122°26'2 1.6
2014-Dec-10 12:31N 47°16' W 122°25'0 0.1
2014-Dec-10 11:33N 47°16' W 122°25'0 0.0
2014-Dec-10 10:33N 47°16' W 122°25'0 0.0
2014-Dec-10 09:33N 47°16' W 122°25'  

Dump ship's entire track history